createdAt,value
2022-12-11T00:00:24.118Z,54
2022-12-11T00:05:19.742Z,54
2022-12-11T00:10:22.401Z,54
2022-12-11T00:15:27.437Z,53
2022-12-11T00:20:16.148Z,54
2022-12-11T00:25:22.595Z,54
2022-12-11T00:30:18.352Z,54
2022-12-11T00:35:25.362Z,54
2022-12-11T00:40:14.252Z,53
2022-12-11T00:45:26.741Z,53
2022-12-11T00:50:20.798Z,54
2022-12-11T00:55:17.829Z,53
2022-12-11T01:00:17.686Z,53
2022-12-11T01:05:16.473Z,54
2022-12-11T01:10:18.295Z,53
2022-12-11T01:15:25.257Z,54
2022-12-11T01:20:16.092Z,54
2022-12-11T01:25:24.338Z,53
2022-12-11T01:30:16.172Z,54
2022-12-11T01:35:20.724Z,54
2022-12-11T01:40:14.548Z,54
2022-12-11T01:45:21.228Z,54
2022-12-11T01:50:19.804Z,52
2022-12-11T01:55:29.549Z,54
2022-12-11T02:00:20.307Z,54
2022-12-11T02:05:17.948Z,53
2022-12-11T02:10:17.565Z,54
2022-12-11T02:15:27.155Z,54
2022-12-11T02:20:21.829Z,53
2022-12-11T02:25:29.912Z,53
2022-12-11T02:30:19.675Z,52
2022-12-11T02:35:29.465Z,52
2022-12-11T02:40:18.218Z,53
2022-12-11T02:45:22.499Z,52
2022-12-11T02:50:14.335Z,53
2022-12-11T02:55:20.655Z,51
2022-12-11T03:00:14.630Z,52
2022-12-11T03:05:14.152Z,52
2022-12-11T03:10:14.028Z,51
2022-12-11T03:15:24.141Z,51
2022-12-11T03:20:13.985Z,52
2022-12-11T03:25:19.063Z,52
2022-12-11T03:30:15.819Z,52
2022-12-11T03:35:24.506Z,51
2022-12-11T03:40:16.231Z,51
2022-12-11T03:45:20.139Z,52
2022-12-11T03:50:14.003Z,52
2022-12-11T03:55:22.389Z,52
2022-12-11T04:00:16.090Z,51
2022-12-11T04:05:14.411Z,52
2022-12-11T04:10:18.222Z,52
2022-12-11T04:15:21.570Z,52
2022-12-11T04:20:18.253Z,52
2022-12-11T04:25:22.119Z,52
2022-12-11T04:30:14.037Z,52
2022-12-11T04:35:21.789Z,52
2022-12-11T04:40:16.395Z,52
2022-12-11T04:45:20.865Z,53
2022-12-11T04:50:19.543Z,52
2022-12-11T04:55:23.246Z,52
2022-12-11T05:00:15.939Z,52
2022-12-11T05:05:15.528Z,52
2022-12-11T05:10:22.090Z,51
2022-12-11T05:15:32.810Z,52
2022-12-11T05:20:17.473Z,50
2022-12-11T05:25:22.127Z,52
2022-12-11T05:30:15.875Z,50
2022-12-11T05:35:17.478Z,50
2022-12-11T05:40:18.170Z,52
2022-12-11T05:45:26.981Z,50
2022-12-11T05:50:17.653Z,53
2022-12-11T05:55:22.935Z,55
2022-12-11T06:00:18.107Z,54
2022-12-11T06:05:16.187Z,54
2022-12-11T06:10:15.642Z,55
2022-12-11T06:15:22.976Z,55
2022-12-11T06:20:21.637Z,54
2022-12-11T06:25:24.362Z,54
2022-12-11T06:30:20.185Z,54
2022-12-11T06:35:19.844Z,54
2022-12-11T06:40:15.541Z,54
2022-12-11T06:45:22.244Z,53
2022-12-11T06:50:14.166Z,54
2022-12-11T06:55:21.885Z,54
2022-12-11T07:00:17.703Z,53
2022-12-11T07:05:18.091Z,54
2022-12-11T07:10:22.102Z,53
2022-12-11T07:15:16.033Z,53
2022-12-11T07:20:19.738Z,53
2022-12-11T07:25:14.741Z,52
2022-12-11T07:30:15.002Z,53
2022-12-11T07:35:21.719Z,53
2022-12-11T07:40:14.565Z,52
2022-12-11T07:45:16.291Z,53
2022-12-11T07:50:16.063Z,53
2022-12-11T07:55:17.863Z,52
2022-12-11T08:00:15.638Z,52
2022-12-11T08:05:16.424Z,52
2022-12-11T08:10:16.088Z,52
2022-12-11T08:15:15.107Z,52
2022-12-11T08:20:15.774Z,52
2022-12-11T08:25:20.392Z,52
2022-12-11T08:30:16.230Z,52
2022-12-11T08:35:14.073Z,52
2022-12-11T08:40:27.780Z,51
2022-12-11T08:45:22.876Z,51
2022-12-11T08:50:15.706Z,51
2022-12-11T08:55:16.348Z,51
2022-12-11T09:00:18.082Z,52
2022-12-11T09:05:20.165Z,51
2022-12-11T09:10:14.112Z,52
2022-12-11T09:15:19.260Z,52
2022-12-11T09:20:14.334Z,51
2022-12-11T09:25:19.741Z,52
2022-12-11T09:30:20.489Z,52
2022-12-11T09:35:20.753Z,52
2022-12-11T09:40:19.516Z,51
2022-12-11T09:45:23.069Z,52
2022-12-11T09:50:15.700Z,50
2022-12-11T09:55:26.625Z,50
2022-12-11T10:00:17.253Z,50
2022-12-11T10:05:15.746Z,51
2022-12-11T10:10:18.485Z,51
2022-12-11T10:15:22.273Z,51
2022-12-11T10:20:24.208Z,51
2022-12-11T10:25:30.579Z,50
2022-12-11T10:30:16.332Z,50
2022-12-11T10:35:19.952Z,51
2022-12-11T10:40:19.608Z,50
2022-12-11T10:45:21.851Z,51
2022-12-11T10:55:18.808Z,51
2022-12-11T11:00:15.002Z,54
2022-12-11T11:05:20.089Z,54
2022-12-11T11:10:19.900Z,54
2022-12-11T11:15:29.928Z,53
2022-12-11T11:20:16.540Z,52
2022-12-11T11:25:22.933Z,53
2022-12-11T11:30:15.710Z,53
2022-12-11T11:35:22.464Z,52
2022-12-11T11:40:16.160Z,52
2022-12-11T11:45:27.280Z,50
2022-12-11T11:50:16.052Z,50
2022-12-11T11:55:22.905Z,50
2022-12-11T12:00:18.451Z,52
2022-12-11T12:05:15.866Z,52
2022-12-11T12:10:16.100Z,50
2022-12-11T12:15:17.870Z,50
2022-12-11T12:20:15.839Z,51
2022-12-11T12:25:17.527Z,52
2022-12-11T12:30:24.270Z,52
2022-12-11T12:35:18.089Z,51
2022-12-11T12:40:13.938Z,52
2022-12-11T12:45:17.973Z,52
2022-12-11T12:50:18.305Z,52
2022-12-11T12:55:15.989Z,51
2022-12-11T13:00:26.914Z,51
2022-12-11T13:05:21.679Z,51
2022-12-11T13:10:20.345Z,50
2022-12-11T13:15:16.111Z,50
2022-12-11T13:20:23.739Z,50
2022-12-11T13:25:16.416Z,51
2022-12-11T13:30:20.110Z,52
2022-12-11T13:35:23.747Z,52
2022-12-11T13:40:14.534Z,52
2022-12-11T13:45:22.239Z,52
2022-12-11T13:50:26.078Z,51
2022-12-11T13:55:17.746Z,53
2022-12-11T14:00:17.527Z,50
2022-12-11T14:05:15.849Z,52
2022-12-11T14:10:17.777Z,51
2022-12-11T14:15:14.725Z,52
2022-12-11T14:20:16.381Z,50
2022-12-11T14:25:16.044Z,52
2022-12-11T14:30:15.845Z,51
2022-12-11T14:35:17.491Z,51
2022-12-11T14:40:18.201Z,51
2022-12-11T14:45:15.110Z,50
2022-12-11T14:50:15.947Z,51
2022-12-11T14:55:17.744Z,51
2022-12-11T15:00:16.556Z,51
2022-12-11T15:05:14.318Z,51
2022-12-11T15:10:14.546Z,51
2022-12-11T15:15:16.315Z,51
2022-12-11T15:20:15.150Z,52
2022-12-11T15:25:15.979Z,50
2022-12-11T15:30:26.111Z,51
2022-12-11T15:35:14.083Z,51
2022-12-11T15:40:20.825Z,51
2022-12-11T15:45:20.841Z,51
2022-12-11T15:50:16.425Z,51
2022-12-11T15:55:16.124Z,50
2022-12-11T16:00:21.834Z,51
2022-12-11T16:05:17.613Z,51
2022-12-11T16:10:24.298Z,50
2022-12-11T16:15:23.364Z,50
2022-12-11T16:20:17.769Z,51
2022-12-11T16:25:20.391Z,51
2022-12-11T16:30:18.369Z,50
2022-12-11T16:35:22.036Z,49
2022-12-11T16:40:17.661Z,50
2022-12-11T16:45:16.341Z,51
2022-12-11T16:50:21.999Z,51
2022-12-11T16:55:18.597Z,51
2022-12-11T17:00:22.405Z,52
2022-12-11T17:05:18.480Z,52
2022-12-11T17:10:20.305Z,52
2022-12-11T17:15:15.118Z,52
2022-12-11T17:20:17.876Z,52
2022-12-11T17:25:27.605Z,52
2022-12-11T17:30:16.290Z,52
2022-12-11T17:35:16.055Z,54
2022-12-11T17:40:19.864Z,57
2022-12-11T17:45:15.842Z,57
2022-12-11T17:50:19.511Z,55
2022-12-11T17:55:17.087Z,56
2022-12-11T18:00:16.050Z,56
2022-12-11T18:05:16.277Z,54
2022-12-11T18:10:19.929Z,53
2022-12-11T18:15:17.680Z,53
2022-12-11T18:20:23.492Z,53
2022-12-11T18:25:23.885Z,53
2022-12-11T18:30:20.766Z,55
2022-12-11T18:35:15.059Z,54
2022-12-11T18:40:18.854Z,53
2022-12-11T18:45:15.027Z,54
2022-12-11T18:50:19.786Z,53
2022-12-11T18:55:15.058Z,52
2022-12-11T19:00:23.285Z,52
2022-12-11T19:05:15.137Z,52
2022-12-11T19:10:18.144Z,52
2022-12-11T19:15:19.548Z,53
2022-12-11T19:21:20.289Z,53
2022-12-11T19:25:17.962Z,51
2022-12-11T19:30:20.916Z,52
2022-12-11T19:35:17.608Z,51
2022-12-11T19:40:21.310Z,51
2022-12-11T19:45:18.299Z,54
2022-12-11T19:50:18.970Z,52
2022-12-11T19:55:14.249Z,53
2022-12-11T20:00:23.394Z,52
2022-12-11T20:05:18.178Z,52
2022-12-11T20:10:26.906Z,51
2022-12-11T20:15:23.731Z,50
2022-12-11T20:20:23.501Z,50
2022-12-11T20:25:20.236Z,50
2022-12-11T20:30:21.092Z,50
2022-12-11T20:35:17.770Z,49
2022-12-11T20:40:23.526Z,50
2022-12-11T20:45:20.307Z,50
2022-12-11T20:50:19.962Z,50
2022-12-11T20:55:21.629Z,49
2022-12-11T21:00:16.392Z,50
2022-12-11T21:05:16.047Z,50
2022-12-11T21:10:14.025Z,50
2022-12-11T21:15:22.004Z,50
2022-12-11T21:20:14.350Z,49
2022-12-11T21:25:14.951Z,49
2022-12-11T21:30:15.937Z,49
2022-12-11T21:35:15.733Z,49
2022-12-11T21:40:22.468Z,49
2022-12-11T21:46:14.751Z,49
2022-12-11T21:50:17.646Z,49
2022-12-11T21:55:18.306Z,49
2022-12-11T22:00:16.094Z,49
2022-12-11T22:05:15.973Z,49
2022-12-11T22:10:19.879Z,49
2022-12-11T22:15:15.772Z,49
2022-12-11T22:20:24.523Z,48
2022-12-11T22:25:16.266Z,48
2022-12-11T22:30:23.074Z,48
2022-12-11T22:35:15.999Z,48
2022-12-11T22:40:20.880Z,48
2022-12-11T22:45:15.929Z,48
2022-12-11T22:50:18.586Z,48
2022-12-11T22:55:15.074Z,48
2022-12-11T23:00:18.679Z,49
2022-12-11T23:05:15.007Z,48
2022-12-11T23:10:19.737Z,48
2022-12-11T23:15:18.826Z,48
2022-12-11T23:20:20.616Z,48
2022-12-11T23:25:20.286Z,47
2022-12-11T23:30:19.158Z,48
2022-12-11T23:35:17.753Z,48
2022-12-11T23:40:21.515Z,48
2022-12-11T23:45:15.319Z,47
2022-12-11T23:50:25.271Z,48
2022-12-11T23:55:19.889Z,46
